createdAt,value
2019-03-08T00:02:28.993Z,99261.45
2019-03-08T00:05:04.887Z,99259.91
2019-03-08T00:07:41.525Z,99259.66
2019-03-08T00:10:21.755Z,99255.45
2019-03-08T00:12:56.687Z,99261.73
2019-03-08T00:15:33.980Z,99263.82
2019-03-08T00:18:09.863Z,99271.14
2019-03-08T00:20:47.255Z,99272.95
2019-03-08T00:23:24.563Z,99272.70
2019-03-08T00:26:02.133Z,99268.50
2019-03-08T00:28:38.549Z,99265.66
2019-03-08T00:31:13.659Z,99261.46
2019-03-08T00:33:48.508Z,99254.16
2019-03-08T00:36:23.343Z,99267.20
2019-03-08T00:38:58.211Z,99264.59
2019-03-08T00:41:33.035Z,99280.27
2019-03-08T00:44:07.884Z,99277.40
2019-03-08T00:46:43.691Z,99281.04
2019-03-08T00:49:18.447Z,99276.09
2019-03-08T00:51:53.315Z,99274.02
2019-03-08T00:54:28.142Z,99289.13
2019-03-08T00:57:03.061Z,99287.33
2019-03-08T00:59:38.877Z,99285.50
2019-03-08T01:02:13.738Z,99291.75
2019-03-08T01:04:48.861Z,99284.45
2019-03-08T01:07:23.831Z,99286.02
2019-03-08T01:09:58.733Z,99311.86
2019-03-08T01:12:37.409Z,99292.01
2019-03-08T01:15:15.155Z,99278.70
2019-03-08T01:17:50.229Z,99271.39
2019-03-08T01:20:24.981Z,99293.05
2019-03-08T01:23:00.717Z,99292.55
2019-03-08T01:25:35.579Z,99278.19
2019-03-08T01:28:15.700Z,99283.16
2019-03-08T01:30:50.537Z,99279.74
2019-03-08T01:33:25.571Z,99294.10
2019-03-08T01:36:00.314Z,99295.66
2019-03-08T01:38:36.955Z,99293.05
2019-03-08T01:41:11.821Z,99292.00
2019-03-08T01:43:46.618Z,99284.69
2019-03-08T01:46:21.463Z,99298.00
2019-03-08T01:48:56.235Z,99302.70
2019-03-08T01:51:31.075Z,99294.88
2019-03-08T01:54:05.855Z,99317.61
2019-03-08T01:56:40.577Z,99324.64
2019-03-08T01:59:16.355Z,99329.33
2019-03-08T02:01:52.063Z,99318.13
2019-03-08T02:04:26.831Z,99322.80
2019-03-08T02:07:01.727Z,99329.05
2019-03-08T02:09:36.544Z,99327.27
2019-03-08T02:12:11.356Z,99325.16
2019-03-08T02:14:46.209Z,99329.59
2019-03-08T02:17:20.957Z,99355.16
2019-03-08T02:19:55.891Z,99335.33
2019-03-08T02:22:30.896Z,99337.16
2019-03-08T02:25:06.066Z,99339.78
2019-03-08T02:27:40.829Z,99353.35
2019-03-08T02:30:18.768Z,99346.55
2019-03-08T02:32:53.661Z,99369.02
2019-03-08T02:35:28.521Z,99378.42
2019-03-08T02:38:03.375Z,99381.02
2019-03-08T02:40:39.278Z,99382.88
2019-03-08T02:43:18.969Z,99388.88
2019-03-08T02:45:53.839Z,99402.43
2019-03-08T02:48:28.571Z,99413.66
2019-03-08T02:51:03.693Z,99408.20
2019-03-08T02:53:39.920Z,99432.47
2019-03-08T02:56:17.228Z,99429.86
2019-03-08T02:58:52.383Z,99425.14
2019-03-08T03:01:27.291Z,99431.92
2019-03-08T03:04:02.715Z,99434.02
2019-03-08T03:06:37.555Z,99433.48
2019-03-08T03:09:12.565Z,99436.33
2019-03-08T03:11:47.875Z,99439.21
2019-03-08T03:14:22.705Z,99444.95
2019-03-08T03:16:57.791Z,99452.27
2019-03-08T03:19:32.748Z,99451.20
2019-03-08T03:22:07.589Z,99460.09
2019-03-08T03:24:42.431Z,99465.84
2019-03-08T03:27:17.171Z,99490.13
2019-03-08T03:29:52.311Z,99476.81
2019-03-08T03:32:27.251Z,99501.36
2019-03-08T03:35:02.208Z,99501.88
2019-03-08T03:37:37.108Z,99500.05
2019-03-08T03:40:13.004Z,99521.98
2019-03-08T03:42:48.736Z,99530.09
2019-03-08T03:45:24.349Z,99538.70
2019-03-08T03:47:59.117Z,99550.20
2019-03-08T03:50:33.962Z,99561.95
2019-03-08T03:53:08.812Z,99569.75
2019-03-08T03:55:43.688Z,99576.81
2019-03-08T03:58:18.615Z,99592.19
2019-03-08T04:00:53.540Z,99596.88
2019-03-08T04:03:29.067Z,99615.97
2019-03-08T04:06:04.105Z,99627.19
2019-03-08T04:08:39.776Z,99629.80
2019-03-08T04:11:14.526Z,99639.95
2019-03-08T04:13:49.249Z,99654.55
2019-03-08T04:16:24.123Z,99660.30
2019-03-08T04:18:59.276Z,99653.53
2019-03-08T04:21:34.142Z,99685.88
2019-03-08T04:24:08.972Z,99677.81
2019-03-08T04:26:43.861Z,99689.31
2019-03-08T04:29:21.388Z,99696.66
2019-03-08T04:31:58.692Z,99703.18
2019-03-08T04:34:35.990Z,99719.63
2019-03-08T04:37:11.685Z,99717.53
2019-03-08T04:39:47.480Z,99728.98
2019-03-08T04:42:25.266Z,99744.66
2019-03-08T04:45:00.121Z,99744.13
2019-03-08T04:47:37.346Z,99760.57
2019-03-08T04:50:12.694Z,99775.50
2019-03-08T04:52:50.333Z,99784.84
2019-03-08T04:55:26.750Z,99796.81
2019-03-08T04:58:01.603Z,99811.59
2019-03-08T05:00:37.693Z,99822.03
2019-03-08T05:03:12.550Z,99814.96
2019-03-08T05:05:49.616Z,99828.20
2019-03-08T05:08:24.549Z,99831.57
2019-03-08T05:10:59.392Z,99840.41
2019-03-08T05:13:34.304Z,99854.99
2019-03-08T05:16:09.219Z,99846.92
2019-03-08T05:18:44.172Z,99852.92
2019-03-08T05:21:20.037Z,99868.82
2019-03-08T05:23:54.829Z,99854.70
2019-03-08T05:27:00.608Z,99876.33
2019-03-08T05:29:36.924Z,99891.70
2019-03-08T05:32:12.046Z,99905.27
2019-03-08T05:34:46.927Z,99905.22
2019-03-08T05:37:21.953Z,99914.34
2019-03-08T05:39:57.491Z,99923.70
2019-03-08T05:42:32.636Z,99928.30
2019-03-08T05:45:08.385Z,99946.87
2019-03-08T05:47:43.276Z,99954.45
2019-03-08T05:50:18.148Z,99964.34
2019-03-08T05:52:53.398Z,99970.58
2019-03-08T05:55:28.299Z,99966.72
2019-03-08T05:58:03.150Z,99980.80
2019-03-08T06:00:38.142Z,99987.16
2019-03-08T06:03:13.020Z,100005.89
2019-03-08T06:05:47.900Z,100017.40
2019-03-08T06:08:26.248Z,100024.45
2019-03-08T06:11:03.101Z,100032.27
2019-03-08T06:13:37.982Z,100036.19
2019-03-08T06:16:12.952Z,100045.76
2019-03-08T06:18:50.650Z,100072.23
2019-03-08T06:21:25.684Z,100081.59
2019-03-08T06:24:00.582Z,100103.27
2019-03-08T06:26:35.550Z,100108.11
2019-03-08T06:29:10.534Z,100125.30
2019-03-08T06:31:45.312Z,100130.09
2019-03-08T06:34:22.330Z,100125.27
2019-03-08T06:36:57.116Z,100140.36
2019-03-08T06:39:32.833Z,100146.88
2019-03-08T06:42:07.822Z,100157.53
2019-03-08T06:44:42.652Z,100168.00
2019-03-08T06:47:18.312Z,100173.80
2019-03-08T06:49:53.259Z,100182.93
2019-03-08T06:52:28.838Z,100192.64
2019-03-08T06:55:03.861Z,100200.98
2019-03-08T06:57:39.664Z,100219.02
2019-03-08T07:00:35.788Z,100229.16
2019-03-08T07:03:10.712Z,100249.50
2019-03-08T07:05:45.798Z,100252.95
2019-03-08T07:08:20.731Z,100263.63
2019-03-08T07:10:55.914Z,100272.19
2019-03-08T07:13:30.910Z,100291.08
2019-03-08T07:16:12.982Z,100297.22
2019-03-08T07:18:43.501Z,100304.03
2019-03-08T07:21:36.567Z,100319.49
2019-03-08T07:24:36.447Z,100321.55
2019-03-08T07:27:35.956Z,100353.04
2019-03-08T07:30:29.216Z,100376.11
2019-03-08T07:33:35.678Z,100372.61
2019-03-08T07:36:17.372Z,100384.68
2019-03-08T07:39:11.826Z,100397.88
2019-03-08T07:42:05.702Z,100401.83
2019-03-08T07:45:03.255Z,100405.45
2019-03-08T07:48:06.202Z,100420.87
2019-03-08T07:51:15.015Z,100429.73
2019-03-08T07:53:59.034Z,100450.47
2019-03-08T07:56:50.464Z,100453.66
2019-03-08T07:59:53.201Z,100471.33
2019-03-08T08:02:38.484Z,100503.81
2019-03-08T08:05:20.136Z,100498.94
2019-03-08T08:08:13.948Z,100503.20
2019-03-08T08:11:07.996Z,100519.25
2019-03-08T08:13:44.919Z,100522.79
2019-03-08T08:16:30.507Z,100532.15
2019-03-08T08:19:15.503Z,100532.37
2019-03-08T08:22:22.150Z,100541.96
2019-03-08T08:25:15.980Z,100553.42
2019-03-08T08:28:18.815Z,100568.73
2019-03-08T08:31:11.610Z,100574.28
2019-03-08T08:34:05.736Z,100580.70
2019-03-08T08:36:57.958Z,100600.91
2019-03-08T08:39:56.522Z,100602.50
2019-03-08T08:42:37.773Z,100605.97
2019-03-08T08:45:34.748Z,100617.59
2019-03-08T08:48:26.599Z,100625.44
2019-03-08T08:51:29.442Z,100628.16
2019-03-08T08:54:22.280Z,100638.02
2019-03-08T08:57:25.390Z,100629.06
2019-03-08T09:00:12.218Z,100632.53
2019-03-08T09:03:08.935Z,100643.22
2019-03-08T09:06:24.518Z,100660.48
2019-03-08T09:09:15.703Z,100655.39
2019-03-08T09:12:11.993Z,100664.75
2019-03-08T09:15:09.330Z,100685.45
2019-03-08T09:18:09.295Z,100684.37
2019-03-08T09:21:14.003Z,100694.63
2019-03-08T09:24:06.206Z,100698.91
2019-03-08T09:27:15.262Z,100706.34
2019-03-08T09:30:12.504Z,100704.55
2019-03-08T09:33:09.496Z,100705.18
2019-03-08T09:35:53.892Z,100719.11
2019-03-08T09:38:35.854Z,100725.05
2019-03-08T09:41:19.619Z,100730.61
2019-03-08T09:44:12.917Z,100732.27
2019-03-08T09:47:06.650Z,100739.22
2019-03-08T09:49:48.015Z,100750.37
2019-03-08T09:52:30.242Z,100744.48
2019-03-08T09:55:10.968Z,100752.93
2019-03-08T09:58:03.960Z,100754.63
2019-03-08T10:00:56.333Z,100770.16
2019-03-08T10:03:41.818Z,100776.63
2019-03-08T10:06:35.618Z,100791.34
2019-03-08T10:09:24.554Z,100787.52
2019-03-08T10:12:13.014Z,100803.98
2019-03-08T10:14:58.610Z,100787.22
2019-03-08T10:17:52.457Z,100804.09
2019-03-08T10:20:39.975Z,100804.77
2019-03-08T10:23:32.130Z,100811.41
2019-03-08T10:26:33.845Z,100813.53
2019-03-08T10:29:25.019Z,100807.47
2019-03-08T10:32:21.517Z,100810.71
2019-03-08T10:35:23.550Z,100821.22
2019-03-08T10:38:02.446Z,100826.06
2019-03-08T10:40:51.604Z,100835.27
2019-03-08T10:43:48.168Z,100841.94
2019-03-08T10:46:47.750Z,100851.86
2019-03-08T10:49:56.639Z,100865.18
2019-03-08T10:52:51.700Z,100876.34
2019-03-08T10:55:45.195Z,100891.66
2019-03-08T10:58:41.928Z,100894.06
2019-03-08T11:01:47.925Z,100888.07
2019-03-08T11:04:37.063Z,100899.86
2019-03-08T11:07:19.281Z,100900.25
2019-03-08T11:10:16.767Z,100919.91
2019-03-08T11:13:03.611Z,100925.28
2019-03-08T11:15:58.089Z,100932.53
2019-03-08T11:18:54.836Z,100933.77
2019-03-08T11:21:41.283Z,100929.98
2019-03-08T11:24:24.665Z,100947.98
2019-03-08T11:27:16.053Z,100949.66
2019-03-08T11:30:08.191Z,100958.67
2019-03-08T11:32:54.549Z,100963.37
2019-03-08T11:35:43.860Z,100963.30
2019-03-08T11:38:46.810Z,100954.59
2019-03-08T11:41:40.084Z,100957.68
2019-03-08T11:44:26.119Z,100977.31
2019-03-08T11:47:32.156Z,101023.05
2019-03-08T11:50:25.117Z,101005.44
2019-03-08T11:53:35.271Z,101012.47
2019-03-08T11:56:29.981Z,101011.91
2019-03-08T11:59:22.149Z,101022.00
2019-03-08T12:02:18.881Z,101024.26
2019-03-08T12:05:18.510Z,101026.48
2019-03-08T12:08:05.553Z,101024.14
2019-03-08T12:10:59.326Z,101026.49
2019-03-08T12:13:56.069Z,101026.90
2019-03-08T12:16:50.790Z,101027.42
2019-03-08T12:19:40.461Z,101030.05
2019-03-08T12:22:33.143Z,101039.57
2019-03-08T12:25:29.477Z,101039.01
2019-03-08T12:28:24.518Z,101040.98
2019-03-08T12:31:23.723Z,101037.40
2019-03-08T12:34:18.079Z,101035.20
2019-03-08T12:36:59.994Z,101042.22
2019-03-08T12:39:54.697Z,101048.39
2019-03-08T12:42:48.435Z,101055.31
2019-03-08T12:45:29.580Z,101062.43
2019-03-08T12:48:12.577Z,101060.22
2019-03-08T12:51:01.102Z,101056.16
2019-03-08T12:53:56.145Z,101050.70
2019-03-08T12:56:52.729Z,101059.37
2019-03-08T12:59:50.193Z,101063.11
2019-03-08T13:02:56.178Z,101056.73
2019-03-08T13:05:49.635Z,101058.84
2019-03-08T13:08:33.048Z,101064.13
2019-03-08T13:11:08.063Z,101060.77
2019-03-08T13:13:42.995Z,101048.45
2019-03-08T13:16:19.133Z,101050.48
2019-03-08T13:18:54.078Z,101054.66
2019-03-08T13:21:31.891Z,101055.16
2019-03-08T13:24:07.807Z,101065.90
2019-03-08T13:26:42.824Z,101077.94
2019-03-08T13:29:17.877Z,101081.91
2019-03-08T13:31:52.761Z,101085.09
2019-03-08T13:34:27.642Z,101085.81
2019-03-08T13:37:02.509Z,101088.18
2019-03-08T13:39:37.311Z,101092.97
2019-03-08T13:42:12.369Z,101085.74
2019-03-08T13:44:47.323Z,101097.25
2019-03-08T13:47:22.237Z,101104.45
2019-03-08T13:49:57.371Z,101101.72
2019-03-08T13:52:32.368Z,101103.39
2019-03-08T13:55:11.478Z,101108.64
2019-03-08T13:57:46.384Z,101098.77
2019-03-08T14:00:22.508Z,101111.89
2019-03-08T14:02:57.407Z,101111.22
2019-03-08T14:05:32.449Z,101119.18
2019-03-08T14:08:07.341Z,101129.97
2019-03-08T14:10:42.239Z,101131.47
2019-03-08T14:13:20.235Z,101126.53
2019-03-08T14:15:55.779Z,101124.73
2019-03-08T14:18:30.719Z,101131.70
2019-03-08T14:21:05.511Z,101137.41
2019-03-08T14:23:40.569Z,101131.55
2019-03-08T14:26:46.369Z,101139.78
2019-03-08T14:29:22.257Z,101130.25
2019-03-08T14:32:06.389Z,101126.84
2019-03-08T14:34:41.286Z,101130.34
2019-03-08T14:37:19.905Z,101127.20
2019-03-08T14:39:53.620Z,101129.34
2019-03-08T14:42:46.281Z,101120.88
2019-03-08T14:45:32.783Z,101135.48
2019-03-08T14:48:09.558Z,101151.10
2019-03-08T14:50:45.121Z,101151.48
2019-03-08T14:53:20.348Z,101148.36
2019-03-08T14:55:58.990Z,101155.13
2019-03-08T14:58:32.650Z,101155.87
2019-03-08T15:01:08.414Z,101155.66
2019-03-08T15:03:44.041Z,101150.67
2019-03-08T15:06:18.988Z,101145.65
2019-03-08T15:08:55.088Z,101148.59
2019-03-08T15:11:30.412Z,101151.30
2019-03-08T15:14:05.211Z,101153.05
2019-03-08T15:16:40.161Z,101161.41
2019-03-08T15:19:16.017Z,101165.70
2019-03-08T15:21:51.126Z,101159.27
2019-03-08T15:24:37.933Z,101156.73
2019-03-08T15:27:05.949Z,101161.00
2019-03-08T15:29:41.133Z,101166.84
2019-03-08T15:32:16.054Z,101155.40
2019-03-08T15:34:50.928Z,101164.33
2019-03-08T15:37:26.007Z,101166.29
2019-03-08T15:40:00.913Z,101161.50
2019-03-08T15:42:38.075Z,101168.91
2019-03-08T15:45:13.241Z,101165.71
2019-03-08T15:47:48.753Z,101171.19
2019-03-08T15:50:23.706Z,101172.08
2019-03-08T15:52:58.638Z,101171.86
2019-03-08T15:55:33.694Z,101167.59
2019-03-08T15:58:08.675Z,101160.70
2019-03-08T16:00:43.651Z,101168.25
2019-03-08T16:03:18.559Z,101167.23
2019-03-08T16:05:53.482Z,101162.25
2019-03-08T16:08:28.441Z,101173.73
2019-03-08T16:11:04.107Z,101174.26
2019-03-08T16:13:39.015Z,101170.69
2019-03-08T16:16:16.941Z,101169.23
2019-03-08T16:18:52.709Z,101166.11
2019-03-08T16:21:27.587Z,101160.13
2019-03-08T16:24:02.525Z,101160.47
2019-03-08T16:26:37.459Z,101164.47
2019-03-08T16:29:12.364Z,101159.00
2019-03-08T16:32:11.781Z,101162.11
2019-03-08T16:34:46.320Z,101158.02
2019-03-08T16:37:25.411Z,101155.19
2019-03-08T16:40:21.588Z,101153.75
2019-03-08T16:43:20.983Z,101153.34
2019-03-08T16:46:17.263Z,101159.37
2019-03-08T16:48:57.885Z,101157.05
2019-03-08T16:51:42.983Z,101155.19
2019-03-08T16:54:32.023Z,101159.12
2019-03-08T16:57:22.148Z,101155.23
2019-03-08T17:00:14.323Z,101165.92
2019-03-08T17:02:57.017Z,101161.20
2019-03-08T17:06:06.000Z,101163.80
2019-03-08T17:08:57.715Z,101173.16
2019-03-08T17:11:39.926Z,101165.84
2019-03-08T17:14:43.299Z,101169.39
2019-03-08T17:17:36.711Z,101167.84
2019-03-08T17:20:49.529Z,101171.27
2019-03-08T17:23:32.111Z,101170.67
2019-03-08T17:26:31.935Z,101171.84
2019-03-08T17:29:30.468Z,101170.69
2019-03-08T17:32:23.359Z,101172.44
2019-03-08T17:35:26.297Z,101170.23
2019-03-08T17:38:20.284Z,101164.64
2019-03-08T17:41:05.697Z,101172.45
2019-03-08T17:43:47.629Z,101173.30
2019-03-08T17:46:29.077Z,101169.81
2019-03-08T17:49:21.312Z,101171.34
2019-03-08T17:52:14.196Z,101170.62
2019-03-08T17:55:14.093Z,101168.53
2019-03-08T17:58:12.345Z,101170.78
2019-03-08T18:01:18.295Z,101171.95
2019-03-08T18:04:02.756Z,101168.67
2019-03-08T18:06:55.037Z,101168.97
2019-03-08T18:09:48.245Z,101169.53
2019-03-08T18:12:51.383Z,101164.96
2019-03-08T18:15:43.846Z,101162.95
2019-03-08T18:18:43.569Z,101161.11
2019-03-08T18:21:35.828Z,101166.14
2019-03-08T18:24:33.380Z,101160.09
2019-03-08T18:27:28.260Z,101158.47
2019-03-08T18:30:23.153Z,101156.09
2019-03-08T18:33:16.005Z,101154.42
2019-03-08T18:36:12.660Z,101154.55
2019-03-08T18:39:09.777Z,101149.11
2019-03-08T18:42:00.090Z,101145.04
2019-03-08T18:45:00.659Z,101138.45
2019-03-08T18:47:48.683Z,101140.75
2019-03-08T18:50:33.103Z,101137.10
2019-03-08T18:53:36.952Z,101129.57
2019-03-08T18:56:39.588Z,101124.03
2019-03-08T18:59:48.595Z,101128.95
2019-03-08T19:02:35.238Z,101121.47
2019-03-08T19:05:45.539Z,101118.28
2019-03-08T19:08:55.676Z,101114.78
2019-03-08T19:11:54.573Z,101112.41
2019-03-08T19:15:04.478Z,101113.83
2019-03-08T19:17:55.332Z,101117.63
2019-03-08T19:21:02.769Z,101110.49
2019-03-08T19:23:44.182Z,101101.55
2019-03-08T19:26:25.866Z,101100.33
2019-03-08T19:29:21.017Z,101101.63
2019-03-08T19:32:17.754Z,101095.59
2019-03-08T19:35:22.068Z,101090.94
2019-03-08T19:38:13.161Z,101091.75
2019-03-08T19:41:05.328Z,101092.14
2019-03-08T19:44:02.096Z,101091.78
2019-03-08T19:46:50.306Z,101087.69
2019-03-08T19:49:42.404Z,101086.39
2019-03-08T19:52:26.688Z,101081.69
2019-03-08T19:55:20.903Z,101082.31
2019-03-08T19:58:26.836Z,101078.77
2019-03-08T20:01:37.645Z,101081.81
2019-03-08T20:04:29.310Z,101078.55
2019-03-08T20:07:22.941Z,101068.63
2019-03-08T20:10:15.089Z,101065.51
2019-03-08T20:13:12.380Z,101058.72
2019-03-08T20:16:01.764Z,101056.97
2019-03-08T20:19:01.255Z,101052.05
2019-03-08T20:21:50.187Z,101040.81
2019-03-08T20:24:34.388Z,101040.97
2019-03-08T20:27:36.118Z,101039.63
2019-03-08T20:30:22.350Z,101032.62
2019-03-08T20:33:22.952Z,101026.52
2019-03-08T20:36:38.121Z,101021.71
2019-03-08T20:39:30.470Z,101017.44
2019-03-08T20:42:15.633Z,101013.00
2019-03-08T20:45:02.197Z,101011.69
2019-03-08T20:47:37.902Z,101010.31
2019-03-08T20:50:13.281Z,101003.05
2019-03-08T20:52:48.268Z,100997.73
2019-03-08T20:55:24.180Z,101000.11
2019-03-08T20:58:00.932Z,100993.22
2019-03-08T21:00:35.941Z,100997.80
2019-03-08T21:03:11.538Z,100996.50
2019-03-08T21:05:48.146Z,100994.50
2019-03-08T21:08:25.012Z,100996.08
2019-03-08T21:11:06.511Z,100993.45
2019-03-08T21:13:41.392Z,100983.44
2019-03-08T21:16:16.574Z,100987.09
2019-03-08T21:18:51.441Z,100985.42
2019-03-08T21:21:26.397Z,100982.02
2019-03-08T21:24:01.271Z,100977.77
2019-03-08T21:26:36.163Z,100974.86
2019-03-08T21:29:12.324Z,100966.20
2019-03-08T21:31:47.244Z,100967.88
2019-03-08T21:34:22.324Z,100967.30
2019-03-08T21:36:57.274Z,100963.54
2019-03-08T21:39:32.429Z,100955.04
2019-03-08T21:42:08.346Z,100950.77
2019-03-08T21:44:43.211Z,100949.31
2019-03-08T21:47:18.119Z,100939.13
2019-03-08T21:49:53.356Z,100939.61
2019-03-08T21:52:31.603Z,100927.14
2019-03-08T21:55:06.604Z,100916.43
2019-03-08T21:57:56.747Z,100906.14
2019-03-08T22:00:33.836Z,100896.71
2019-03-08T22:03:10.630Z,100886.48
2019-03-08T22:05:45.787Z,100883.52
2019-03-08T22:08:20.737Z,100882.67
2019-03-08T22:11:14.539Z,100878.03
2019-03-08T22:13:49.619Z,100875.27
2019-03-08T22:16:26.600Z,100869.32
2019-03-08T22:21:47.652Z,100858.89
2019-03-08T22:24:23.023Z,100851.20
2019-03-08T22:26:57.796Z,100843.37
2019-03-08T22:29:32.936Z,100830.16
2019-03-08T22:32:07.711Z,100828.58
2019-03-08T22:34:42.653Z,100829.55
2019-03-08T22:37:17.573Z,100821.38
2019-03-08T22:39:52.825Z,100823.61
2019-03-08T22:42:27.717Z,100815.09
2019-03-08T22:45:02.604Z,100808.44
2019-03-08T22:47:37.457Z,100806.47
2019-03-08T22:50:12.935Z,100802.48
2019-03-08T22:52:47.793Z,100804.19
2019-03-08T22:55:22.730Z,100805.57
2019-03-08T22:57:57.498Z,100800.75
2019-03-08T23:00:59.703Z,100805.92
2019-03-08T23:03:36.309Z,100796.00
2019-03-08T23:06:11.164Z,100783.12
2019-03-08T23:08:46.059Z,100794.73
2019-03-08T23:11:20.962Z,100782.16
2019-03-08T23:13:55.962Z,100777.67
2019-03-08T23:16:31.129Z,100768.13
2019-03-08T23:19:06.322Z,100771.39
2019-03-08T23:21:41.216Z,100764.68
2019-03-08T23:24:16.954Z,100761.97
2019-03-08T23:27:16.236Z,100751.30
2019-03-08T23:29:57.146Z,100746.67
2019-03-08T23:32:44.685Z,100731.17
2019-03-08T23:35:19.515Z,100732.92
2019-03-08T23:37:54.584Z,100732.78
2019-03-08T23:40:29.453Z,100728.37
2019-03-08T23:43:04.452Z,100719.63
2019-03-08T23:46:39.483Z,100714.13
2019-03-08T23:48:57.970Z,100705.05
2019-03-08T23:51:32.919Z,100686.92
2019-03-08T23:54:09.156Z,100690.80
2019-03-08T23:56:45.038Z,100681.58
2019-03-08T23:59:19.932Z,100668.75
